sensor_id;sensor_type;location;lat;lon;timestamp;pressure;altitude;pressure_sealevel;temperature;humidity
66479;BME280;53294;47.912;13.526;2023-01-15T00:01:51;95546.50;;;6.06;58.30
66479;BME280;53294;47.912;13.526;2023-01-15T00:04:18;95554.88;;;6.23;57.82
66479;BME280;53294;47.912;13.526;2023-01-15T00:06:44;95556.16;;;5.67;60.23
66479;BME280;53294;47.912;13.526;2023-01-15T00:09:14;95540.63;;;6.09;58.66
66479;BME280;53294;47.912;13.526;2023-01-15T00:11:41;95531.88;;;6.27;58.14
66479;BME280;53294;47.912;13.526;2023-01-15T00:14:08;95534.25;;;6.34;57.79
66479;BME280;53294;47.912;13.526;2023-01-15T00:16:35;95528.66;;;6.31;58.31
66479;BME280;53294;47.912;13.526;2023-01-15T00:19:01;95521.34;;;6.41;57.75
66479;BME280;53294;47.912;13.526;2023-01-15T00:21:30;95526.53;;;6.33;58.34
66479;BME280;53294;47.912;13.526;2023-01-15T00:23:56;95520.22;;;6.23;58.70
66479;BME280;53294;47.912;13.526;2023-01-15T00:26:42;95525.88;;;6.41;57.90
66479;BME280;53294;47.912;13.526;2023-01-15T00:29:27;95509.78;;;6.51;57.70
66479;BME280;53294;47.912;13.526;2023-01-15T00:31:58;95507.59;;;6.53;57.59
66479;BME280;53294;47.912;13.526;2023-01-15T00:34:25;95505.44;;;6.55;57.47
66479;BME280;53294;47.912;13.526;2023-01-15T00:36:52;95502.72;;;6.60;57.43
66479;BME280;53294;47.912;13.526;2023-01-15T00:39:19;95508.97;;;6.26;58.58
66479;BME280;53294;47.912;13.526;2023-01-15T00:41:46;95496.63;;;6.36;58.31
66479;BME280;53294;47.912;13.526;2023-01-15T00:44:13;95482.03;;;6.28;58.82
66479;BME280;53294;47.912;13.526;2023-01-15T00:46:40;95491.28;;;6.36;58.40
66479;BME280;53294;47.912;13.526;2023-01-15T00:49:07;95493.31;;;6.44;57.93
66479;BME280;53294;47.912;13.526;2023-01-15T00:51:34;95480.03;;;6.39;57.82
66479;BME280;53294;47.912;13.526;2023-01-15T00:54:01;95476.22;;;6.45;57.78
66479;BME280;53294;47.912;13.526;2023-01-15T00:56:28;95478.16;;;6.39;57.90
66479;BME280;53294;47.912;13.526;2023-01-15T00:58:55;95462.22;;;6.10;59.23
66479;BME280;53294;47.912;13.526;2023-01-15T01:01:22;95462.16;;;6.15;59.06
66479;BME280;53294;47.912;13.526;2023-01-15T01:03:49;95471.50;;;6.37;57.93
66479;BME280;53294;47.912;13.526;2023-01-15T01:06:19;95471.19;;;6.19;58.74
66479;BME280;53294;47.912;13.526;2023-01-15T01:08:46;95459.94;;;6.22;58.46
66479;BME280;53294;47.912;13.526;2023-01-15T01:11:16;95455.63;;;6.26;58.24
66479;BME280;53294;47.912;13.526;2023-01-15T01:13:44;95465.28;;;6.22;58.60
66479;BME280;53294;47.912;13.526;2023-01-15T01:16:35;95457.09;;;6.38;58.10
66479;BME280;53294;47.912;13.526;2023-01-15T01:19:25;95452.44;;;6.24;58.46
66479;BME280;53294;47.912;13.526;2023-01-15T01:21:51;95449.59;;;5.97;59.31
66479;BME280;53294;47.912;13.526;2023-01-15T01:24:20;95454.41;;;6.19;58.62
66479;BME280;53294;47.912;13.526;2023-01-15T01:26:47;95445.97;;;6.31;57.98
66479;BME280;53294;47.912;13.526;2023-01-15T01:29:16;95455.19;;;6.19;58.99
66479;BME280;53294;47.912;13.526;2023-01-15T01:31:44;95454.06;;;5.96;59.76
66479;BME280;53294;47.912;13.526;2023-01-15T01:34:11;95441.88;;;5.61;60.54
66479;BME280;53294;47.912;13.526;2023-01-15T01:36:40;95442.97;;;5.89;58.96
66479;BME280;53294;47.912;13.526;2023-01-15T01:39:12;95453.28;;;5.96;58.97
66479;BME280;53294;47.912;13.526;2023-01-15T01:41:39;95436.88;;;5.83;60.04
66479;BME280;53294;47.912;13.526;2023-01-15T01:44:57;95434.50;;;5.82;59.59
66479;BME280;53294;47.912;13.526;2023-01-15T01:46:54;95439.91;;;6.01;58.68
66479;BME280;53294;47.912;13.526;2023-01-15T01:49:20;95426.78;;;5.80;59.78
66479;BME280;53294;47.912;13.526;2023-01-15T01:51:51;95437.66;;;5.60;60.57
66479;BME280;53294;47.912;13.526;2023-01-15T01:54:20;95425.09;;;5.89;59.14
66479;BME280;53294;47.912;13.526;2023-01-15T01:56:48;95427.09;;;6.03;58.48
66479;BME280;53294;47.912;13.526;2023-01-15T01:59:17;95426.69;;;6.15;58.30
66479;BME280;53294;47.912;13.526;2023-01-15T02:01:47;95427.63;;;6.05;57.93
66479;BME280;53294;47.912;13.526;2023-01-15T02:04:16;95425.56;;;6.21;57.78
66479;BME280;53294;47.912;13.526;2023-01-15T02:06:43;95430.44;;;5.89;59.44
66479;BME280;53294;47.912;13.526;2023-01-15T02:09:10;95420.44;;;5.76;59.66
66479;BME280;53294;47.912;13.526;2023-01-15T02:11:37;95417.53;;;6.02;58.80
66479;BME280;53294;47.912;13.526;2023-01-15T02:14:15;95418.31;;;6.26;58.23
66479;BME280;53294;47.912;13.526;2023-01-15T02:27:18;95383.72;;;5.97;58.03
66479;BME280;53294;47.912;13.526;2023-01-15T02:32:33;95385.97;;;6.09;58.80
66479;BME280;53294;47.912;13.526;2023-01-15T02:35:12;95373.56;;;6.18;58.61
66479;BME280;53294;47.912;13.526;2023-01-15T02:37:47;95364.06;;;6.12;58.89
66479;BME280;53294;47.912;13.526;2023-01-15T02:40:18;95350.31;;;6.24;58.37
66479;BME280;53294;47.912;13.526;2023-01-15T02:42:47;95355.81;;;6.33;58.09
66479;BME280;53294;47.912;13.526;2023-01-15T02:45:17;95354.13;;;6.37;57.81
66479;BME280;53294;47.912;13.526;2023-01-15T02:47:54;95344.97;;;6.24;58.18
66479;BME280;53294;47.912;13.526;2023-01-15T02:50:27;95352.56;;;6.36;58.05
66479;BME280;53294;47.912;13.526;2023-01-15T02:52:58;95357.09;;;6.35;57.95
66479;BME280;53294;47.912;13.526;2023-01-15T02:55:33;95337.91;;;6.33;58.49
66479;BME280;53294;47.912;13.526;2023-01-15T02:58:04;95350.53;;;6.27;58.83
66479;BME280;53294;47.912;13.526;2023-01-15T03:00:36;95359.47;;;5.93;60.00
66479;BME280;53294;47.912;13.526;2023-01-15T03:03:36;95348.63;;;6.09;59.52
66479;BME280;53294;47.912;13.526;2023-01-15T03:06:07;95357.94;;;6.11;59.11
66479;BME280;53294;47.912;13.526;2023-01-15T03:08:36;95357.84;;;5.98;59.99
66479;BME280;53294;47.912;13.526;2023-01-15T03:11:08;95357.03;;;5.73;60.72
66479;BME280;53294;47.912;13.526;2023-01-15T03:21:50;95369.16;;;6.33;58.16
66479;BME280;53294;47.912;13.526;2023-01-15T03:24:35;95365.38;;;6.34;58.47
66479;BME280;53294;47.912;13.526;2023-01-15T03:27:04;95369.84;;;6.19;58.89
66479;BME280;53294;47.912;13.526;2023-01-15T03:29:39;95373.81;;;6.22;59.21
66479;BME280;53294;47.912;13.526;2023-01-15T03:32:07;95373.31;;;5.96;58.93
66479;BME280;53294;47.912;13.526;2023-01-15T03:34:41;95381.38;;;5.90;58.64
66479;BME280;53294;47.912;13.526;2023-01-15T03:37:08;95385.31;;;5.98;58.17
66479;BME280;53294;47.912;13.526;2023-01-15T03:39:35;95375.19;;;6.19;57.67
66479;BME280;53294;47.912;13.526;2023-01-15T03:50:26;95368.81;;;6.15;59.79
66479;BME280;53294;47.912;13.526;2023-01-15T03:58:08;95364.00;;;6.17;60.79
66479;BME280;53294;47.912;13.526;2023-01-15T04:00:41;95347.41;;;5.77;63.18
66479;BME280;53294;47.912;13.526;2023-01-15T04:03:10;95326.47;;;5.89;63.07
66479;BME280;53294;47.912;13.526;2023-01-15T04:05:40;95315.72;;;6.00;62.79
66479;BME280;53294;47.912;13.526;2023-01-15T04:08:08;95323.44;;;6.20;62.05
66479;BME280;53294;47.912;13.526;2023-01-15T04:10:35;95306.66;;;6.39;61.74
66479;BME280;53294;47.912;13.526;2023-01-15T04:13:02;95291.91;;;6.41;61.72
66479;BME280;53294;47.912;13.526;2023-01-15T04:15:29;95279.88;;;6.44;61.84
66479;BME280;53294;47.912;13.526;2023-01-15T04:17:56;95271.22;;;6.52;62.00
66479;BME280;53294;47.912;13.526;2023-01-15T04:20:22;95268.88;;;6.64;61.42
66479;BME280;53294;47.912;13.526;2023-01-15T04:22:49;95261.00;;;6.73;61.16
66479;BME280;53294;47.912;13.526;2023-01-15T04:25:15;95264.97;;;6.76;61.50
66479;BME280;53294;47.912;13.526;2023-01-15T04:27:42;95245.38;;;6.67;62.27
66479;BME280;53294;47.912;13.526;2023-01-15T04:30:09;95256.13;;;6.61;63.23
66479;BME280;53294;47.912;13.526;2023-01-15T04:32:36;95239.19;;;6.52;63.01
66479;BME280;53294;47.912;13.526;2023-01-15T04:35:03;95234.72;;;6.67;62.33
66479;BME280;53294;47.912;13.526;2023-01-15T04:37:30;95225.44;;;6.78;62.16
66479;BME280;53294;47.912;13.526;2023-01-15T04:39:56;95210.16;;;6.64;63.06
66479;BME280;53294;47.912;13.526;2023-01-15T04:42:23;95207.94;;;6.72;62.70
66479;BME280;53294;47.912;13.526;2023-01-15T04:45:08;95193.25;;;6.55;63.48
66479;BME280;53294;47.912;13.526;2023-01-15T04:47:35;95191.75;;;6.49;64.10
66479;BME280;53294;47.912;13.526;2023-01-15T04:50:02;95193.50;;;6.07;66.58
66479;BME280;53294;47.912;13.526;2023-01-15T04:52:28;95182.00;;;6.25;65.03
66479;BME280;53294;47.912;13.526;2023-01-15T04:54:55;95183.75;;;6.16;66.06
66479;BME280;53294;47.912;13.526;2023-01-15T04:57:22;95187.84;;;6.27;64.67
66479;BME280;53294;47.912;13.526;2023-01-15T04:59:48;95185.44;;;6.45;63.85
66479;BME280;53294;47.912;13.526;2023-01-15T05:02:15;95185.63;;;6.49;63.92
66479;BME280;53294;47.912;13.526;2023-01-15T05:04:42;95167.94;;;6.39;64.08
66479;BME280;53294;47.912;13.526;2023-01-15T05:07:09;95175.63;;;6.40;64.10
66479;BME280;53294;47.912;13.526;2023-01-15T05:09:35;95170.00;;;6.42;64.55
66479;BME280;53294;47.912;13.526;2023-01-15T05:12:02;95164.72;;;6.23;65.73
66479;BME280;53294;47.912;13.526;2023-01-15T05:14:29;95162.66;;;6.34;64.80
66479;BME280;53294;47.912;13.526;2023-01-15T05:16:56;95172.25;;;6.35;65.76
66479;BME280;53294;47.912;13.526;2023-01-15T05:19:22;95164.34;;;6.29;66.08
66479;BME280;53294;47.912;13.526;2023-01-15T05:21:49;95155.53;;;6.29;66.25
66479;BME280;53294;47.912;13.526;2023-01-15T05:24:18;95154.75;;;6.28;65.69
66479;BME280;53294;47.912;13.526;2023-01-15T05:26:44;95134.81;;;6.40;64.89
66479;BME280;53294;47.912;13.526;2023-01-15T05:29:12;95132.88;;;6.59;64.38
66479;BME280;53294;47.912;13.526;2023-01-15T05:31:39;95135.25;;;6.61;63.79
66479;BME280;53294;47.912;13.526;2023-01-15T05:34:08;95130.31;;;6.54;64.69
66479;BME280;53294;47.912;13.526;2023-01-15T05:36:35;95124.75;;;6.37;65.24
66479;BME280;53294;47.912;13.526;2023-01-15T05:39:03;95127.59;;;6.26;65.36
66479;BME280;53294;47.912;13.526;2023-01-15T05:41:29;95128.25;;;6.18;66.03
66479;BME280;53294;47.912;13.526;2023-01-15T05:44:27;95111.06;;;6.24;65.51
66479;BME280;53294;47.912;13.526;2023-01-15T05:46:58;95109.72;;;6.41;64.98
66479;BME280;53294;47.912;13.526;2023-01-15T05:49:26;95116.06;;;6.45;65.00
66479;BME280;53294;47.912;13.526;2023-01-15T05:51:54;95111.03;;;6.43;65.15
66479;BME280;53294;47.912;13.526;2023-01-15T05:54:23;95112.22;;;6.51;64.33
66479;BME280;53294;47.912;13.526;2023-01-15T05:56:51;95106.00;;;6.56;64.07
66479;BME280;53294;47.912;13.526;2023-01-15T05:59:20;95104.59;;;6.44;64.63
66479;BME280;53294;47.912;13.526;2023-01-15T06:01:47;95109.88;;;6.17;65.74
66479;BME280;53294;47.912;13.526;2023-01-15T06:04:14;95110.13;;;6.34;65.00
66479;BME280;53294;47.912;13.526;2023-01-15T06:06:41;95105.72;;;6.57;64.47
66479;BME280;53294;47.912;13.526;2023-01-15T06:09:08;95113.50;;;6.54;64.95
66479;BME280;53294;47.912;13.526;2023-01-15T06:11:35;95109.31;;;6.34;66.04
66479;BME280;53294;47.912;13.526;2023-01-15T06:14:01;95105.41;;;6.45;65.49
66479;BME280;53294;47.912;13.526;2023-01-15T06:16:28;95087.41;;;6.64;64.69
66479;BME280;53294;47.912;13.526;2023-01-15T06:18:59;95093.34;;;6.75;64.22
66479;BME280;53294;47.912;13.526;2023-01-15T06:21:26;95086.63;;;6.78;63.99
66479;BME280;53294;47.912;13.526;2023-01-15T06:23:52;95098.38;;;6.77;63.75
66479;BME280;53294;47.912;13.526;2023-01-15T06:26:19;95096.63;;;6.86;63.38
66479;BME280;53294;47.912;13.526;2023-01-15T06:28:46;95099.97;;;6.78;63.78
66479;BME280;53294;47.912;13.526;2023-01-15T06:31:18;95097.09;;;6.88;63.37
66479;BME280;53294;47.912;13.526;2023-01-15T06:33:45;95088.00;;;6.89;63.47
66479;BME280;53294;47.912;13.526;2023-01-15T06:36:14;95088.41;;;6.69;64.32
66479;BME280;53294;47.912;13.526;2023-01-15T06:38:42;95087.41;;;6.78;63.80
66479;BME280;53294;47.912;13.526;2023-01-15T06:41:13;95088.00;;;6.89;63.46
66479;BME280;53294;47.912;13.526;2023-01-15T06:43:58;95089.19;;;6.83;63.55
66479;BME280;53294;47.912;13.526;2023-01-15T06:46:45;95084.25;;;6.90;63.38
66479;BME280;53294;47.912;13.526;2023-01-15T06:49:32;95088.00;;;6.89;63.38
66479;BME280;53294;47.912;13.526;2023-01-15T06:51:59;95085.03;;;6.77;63.56
66479;BME280;53294;47.912;13.526;2023-01-15T06:54:26;95086.22;;;6.71;64.10
66479;BME280;53294;47.912;13.526;2023-01-15T06:56:53;95084.06;;;6.59;64.36
66479;BME280;53294;47.912;13.526;2023-01-15T06:59:20;95085.63;;;6.74;63.89
66479;BME280;53294;47.912;13.526;2023-01-15T07:01:47;95084.56;;;6.75;63.71
66479;BME280;53294;47.912;13.526;2023-01-15T07:04:14;95088.72;;;6.81;63.61
66479;BME280;53294;47.912;13.526;2023-01-15T07:06:41;95089.00;;;6.93;63.21
66479;BME280;53294;47.912;13.526;2023-01-15T07:09:08;95089.00;;;6.79;63.97
66479;BME280;53294;47.912;13.526;2023-01-15T07:11:34;95096.41;;;6.82;63.62
66479;BME280;53294;47.912;13.526;2023-01-15T07:14:01;95100.47;;;6.94;63.24
66479;BME280;53294;47.912;13.526;2023-01-15T07:16:35;95090.38;;;7.05;62.94
66479;BME280;53294;47.912;13.526;2023-01-15T07:19:03;95092.75;;;7.06;63.16
66479;BME280;53294;47.912;13.526;2023-01-15T07:21:30;95096.09;;;7.12;62.94
66479;BME280;53294;47.912;13.526;2023-01-15T07:24:00;95095.13;;;7.08;62.82
66479;BME280;53294;47.912;13.526;2023-01-15T07:26:27;95103.59;;;7.10;62.82
66479;BME280;53294;47.912;13.526;2023-01-15T07:28:54;95120.81;;;7.04;63.21
66479;BME280;53294;47.912;13.526;2023-01-15T07:31:20;95121.41;;;7.00;63.24
66479;BME280;53294;47.912;13.526;2023-01-15T07:33:47;95112.31;;;7.01;63.49
66479;BME280;53294;47.912;13.526;2023-01-15T07:36:14;95104.31;;;7.01;63.44
66479;BME280;53294;47.912;13.526;2023-01-15T07:38:40;95117.38;;;7.03;63.23
66479;BME280;53294;47.912;13.526;2023-01-15T07:41:07;95116.66;;;6.97;63.81
66479;BME280;53294;47.912;13.526;2023-01-15T07:43:52;95120.81;;;6.90;64.18
66479;BME280;53294;47.912;13.526;2023-01-15T07:46:39;95124.78;;;6.92;63.94
66479;BME280;53294;47.912;13.526;2023-01-15T07:49:25;95118.06;;;6.81;64.53
66479;BME280;53294;47.912;13.526;2023-01-15T07:52:14;95125.78;;;6.69;65.29
66479;BME280;53294;47.912;13.526;2023-01-15T07:54:41;95129.31;;;6.50;65.96
66479;BME280;53294;47.912;13.526;2023-01-15T07:57:09;95127.66;;;6.82;64.64
66479;BME280;53294;47.912;13.526;2023-01-15T07:59:35;95126.75;;;6.45;66.74
66479;BME280;53294;47.912;13.526;2023-01-15T08:02:02;95105.81;;;6.66;65.61
66479;BME280;53294;47.912;13.526;2023-01-15T08:04:29;95101.84;;;6.91;64.56
66479;BME280;53294;47.912;13.526;2023-01-15T08:06:58;95092.56;;;6.61;66.29
66479;BME280;53294;47.912;13.526;2023-01-15T08:09:26;95108.72;;;6.37;67.12
66479;BME280;53294;47.912;13.526;2023-01-15T08:11:53;95113.72;;;6.57;66.29
66479;BME280;53294;47.912;13.526;2023-01-15T08:14:38;95101.66;;;6.88;64.98
66479;BME280;53294;47.912;13.526;2023-01-15T08:17:23;95096.13;;;6.98;64.84
66479;BME280;53294;47.912;13.526;2023-01-15T08:19:50;95106.78;;;7.12;64.44
66479;BME280;53294;47.912;13.526;2023-01-15T08:22:17;95091.44;;;7.04;65.42
66479;BME280;53294;47.912;13.526;2023-01-15T08:24:43;95095.31;;;6.97;65.26
66479;BME280;53294;47.912;13.526;2023-01-15T08:27:11;95095.50;;;7.15;64.80
66479;BME280;53294;47.912;13.526;2023-01-15T08:29:39;95107.56;;;7.26;64.45
66479;BME280;53294;47.912;13.526;2023-01-15T08:32:05;95102.22;;;7.26;64.72
66479;BME280;53294;47.912;13.526;2023-01-15T08:34:32;95113.69;;;7.13;65.54
66479;BME280;53294;47.912;13.526;2023-01-15T08:36:59;95114.50;;;6.72;67.18
66479;BME280;53294;47.912;13.526;2023-01-15T08:39:26;95101.28;;;6.67;67.08
66479;BME280;53294;47.912;13.526;2023-01-15T08:41:54;95114.00;;;6.97;65.44
66479;BME280;53294;47.912;13.526;2023-01-15T08:44:21;95100.03;;;7.14;64.94
66479;BME280;53294;47.912;13.526;2023-01-15T08:46:50;95110.09;;;7.31;64.23
66479;BME280;53294;47.912;13.526;2023-01-15T08:49:17;95107.81;;;7.39;63.86
66479;BME280;53294;47.912;13.526;2023-01-15T08:51:45;95101.13;;;7.27;64.69
66479;BME280;53294;47.912;13.526;2023-01-15T08:54:15;95095.69;;;7.18;64.85
66479;BME280;53294;47.912;13.526;2023-01-15T08:56:41;95101.44;;;7.26;64.73
66479;BME280;53294;47.912;13.526;2023-01-15T08:59:08;95108.75;;;7.20;64.88
66479;BME280;53294;47.912;13.526;2023-01-15T09:01:35;95103.69;;;7.32;64.42
66479;BME280;53294;47.912;13.526;2023-01-15T09:04:02;95107.38;;;7.23;65.01
66479;BME280;53294;47.912;13.526;2023-01-15T09:06:32;95099.03;;;7.38;64.60
66479;BME280;53294;47.912;13.526;2023-01-15T09:08:59;95088.34;;;7.38;64.54
66479;BME280;53294;47.912;13.526;2023-01-15T09:11:26;95103.09;;;7.22;65.59
66479;BME280;53294;47.912;13.526;2023-01-15T09:13:54;95096.41;;;7.47;64.53
66479;BME280;53294;47.912;13.526;2023-01-15T09:16:20;95096.97;;;7.58;64.11
66479;BME280;53294;47.912;13.526;2023-01-15T09:18:47;95097.00;;;7.44;64.71
66479;BME280;53294;47.912;13.526;2023-01-15T09:21:14;95084.50;;;7.53;64.09
66479;BME280;53294;47.912;13.526;2023-01-15T09:23:40;95084.69;;;7.34;65.04
66479;BME280;53294;47.912;13.526;2023-01-15T09:26:24;95093.38;;;7.40;64.70
66479;BME280;53294;47.912;13.526;2023-01-15T09:28:51;95099.13;;;7.33;64.94
66479;BME280;53294;47.912;13.526;2023-01-15T09:31:18;95089.50;;;7.46;65.29
66479;BME280;53294;47.912;13.526;2023-01-15T09:33:44;95088.59;;;6.86;68.15
66479;BME280;53294;47.912;13.526;2023-01-15T09:36:21;95085.78;;;7.19;66.91
66479;BME280;53294;47.912;13.526;2023-01-15T09:38:48;95077.22;;;7.45;65.64
66479;BME280;53294;47.912;13.526;2023-01-15T09:41:16;95061.94;;;7.59;65.30
66479;BME280;53294;47.912;13.526;2023-01-15T09:47:16;95074.56;;;7.67;65.03
66479;BME280;53294;47.912;13.526;2023-01-15T09:51:01;95055.75;;;7.72;65.43
66479;BME280;53294;47.912;13.526;2023-01-15T09:53:16;95047.59;;;7.55;67.00
66479;BME280;53294;47.912;13.526;2023-01-15T09:55:48;95045.03;;;7.27;68.86
66479;BME280;53294;47.912;13.526;2023-01-15T09:58:21;95040.19;;;7.52;67.39
66479;BME280;53294;47.912;13.526;2023-01-15T10:00:52;95037.75;;;7.64;66.87
66479;BME280;53294;47.912;13.526;2023-01-15T10:06:40;95035.44;;;7.94;65.83
66479;BME280;53294;47.912;13.526;2023-01-15T10:09:20;95030.34;;;7.84;65.89
66479;BME280;53294;47.912;13.526;2023-01-15T10:11:54;95033.63;;;8.03;65.32
66479;BME280;53294;47.912;13.526;2023-01-15T10:14:59;95031.28;;;8.11;64.90
66479;BME280;53294;47.912;13.526;2023-01-15T10:17:50;95015.88;;;8.16;65.11
66479;BME280;53294;47.912;13.526;2023-01-15T10:23:08;95000.19;;;8.23;64.62
66479;BME280;53294;47.912;13.526;2023-01-15T10:25:47;94995.53;;;8.38;64.38
66479;BME280;53294;47.912;13.526;2023-01-15T10:28:19;94987.19;;;8.39;63.83
66479;BME280;53294;47.912;13.526;2023-01-15T10:30:54;94990.63;;;8.40;64.41
66479;BME280;53294;47.912;13.526;2023-01-15T10:36:21;94971.47;;;8.47;64.31
66479;BME280;53294;47.912;13.526;2023-01-15T10:39:04;94973.41;;;8.55;64.22
66479;BME280;53294;47.912;13.526;2023-01-15T10:47:13;94980.50;;;8.68;63.98
66479;BME280;53294;47.912;13.526;2023-01-15T10:49:41;94978.63;;;8.77;63.83
66479;BME280;53294;47.912;13.526;2023-01-15T10:52:29;94973.16;;;8.83;64.05
66479;BME280;53294;47.912;13.526;2023-01-15T10:55:05;94976.28;;;8.85;63.90
66479;BME280;53294;47.912;13.526;2023-01-15T10:58:02;94972.97;;;8.70;64.58
66479;BME280;53294;47.912;13.526;2023-01-15T11:00:37;94969.47;;;8.52;64.81
66479;BME280;53294;47.912;13.526;2023-01-15T11:03:10;94952.63;;;8.52;64.95
66479;BME280;53294;47.912;13.526;2023-01-15T11:05:41;94951.03;;;8.51;65.03
66479;BME280;53294;47.912;13.526;2023-01-15T11:08:14;94953.06;;;8.45;65.53
66479;BME280;53294;47.912;13.526;2023-01-15T11:11:26;94949.81;;;8.74;64.79
66479;BME280;53294;47.912;13.526;2023-01-15T11:14:13;94960.84;;;8.64;64.88
66479;BME280;53294;47.912;13.526;2023-01-15T11:17:00;94958.59;;;8.49;65.77
66479;BME280;53294;47.912;13.526;2023-01-15T11:19:34;94959.22;;;8.54;65.52
66479;BME280;53294;47.912;13.526;2023-01-15T11:22:12;94973.72;;;8.62;65.47
66479;BME280;53294;47.912;13.526;2023-01-15T11:24:54;94960.09;;;8.32;65.85
66479;BME280;53294;47.912;13.526;2023-01-15T11:27:28;94954.63;;;7.97;66.75
66479;BME280;53294;47.912;13.526;2023-01-15T11:30:00;94941.09;;;8.02;66.24
66479;BME280;53294;47.912;13.526;2023-01-15T11:32:33;94953.28;;;7.86;67.54
66479;BME280;53294;47.912;13.526;2023-01-15T11:35:02;94943.09;;;7.88;67.23
66479;BME280;53294;47.912;13.526;2023-01-15T11:37:30;94957.94;;;7.71;68.50
66479;BME280;53294;47.912;13.526;2023-01-15T11:39:58;94949.69;;;7.59;69.47
66479;BME280;53294;47.912;13.526;2023-01-15T11:42:31;94954.28;;;7.67;68.35
66479;BME280;53294;47.912;13.526;2023-01-15T11:45:19;94948.06;;;7.81;67.60
66479;BME280;53294;47.912;13.526;2023-01-15T11:48:15;94956.69;;;8.09;66.70
66479;BME280;53294;47.912;13.526;2023-01-15T11:51:09;94951.19;;;8.05;66.82
66479;BME280;53294;47.912;13.526;2023-01-15T11:53:50;94946.09;;;7.95;66.42
66479;BME280;53294;47.912;13.526;2023-01-15T11:56:26;94962.19;;;8.04;66.46
66479;BME280;53294;47.912;13.526;2023-01-15T11:58:56;94968.00;;;8.06;66.42
66479;BME280;53294;47.912;13.526;2023-01-15T12:01:30;94969.91;;;8.05;65.91
66479;BME280;53294;47.912;13.526;2023-01-15T12:04:00;94983.28;;;8.05;66.04
66479;BME280;53294;47.912;13.526;2023-01-15T12:06:29;94989.75;;;8.13;65.84
66479;BME280;53294;47.912;13.526;2023-01-15T12:12:09;95025.09;;;8.01;66.09
66479;BME280;53294;47.912;13.526;2023-01-15T12:20:30;95023.81;;;8.30;67.91
66479;BME280;53294;47.912;13.526;2023-01-15T12:22:44;95031.84;;;8.30;67.95
66479;BME280;53294;47.912;13.526;2023-01-15T12:25:26;95061.59;;;8.37;68.82
66479;BME280;53294;47.912;13.526;2023-01-15T12:36:07;95115.78;;;8.12;72.23
66479;BME280;53294;47.912;13.526;2023-01-15T12:38:49;95125.16;;;8.00;72.45
66479;BME280;53294;47.912;13.526;2023-01-15T12:44:20;95151.34;;;7.89;73.07
66479;BME280;53294;47.912;13.526;2023-01-15T12:47:10;95168.75;;;7.87;73.46
66479;BME280;53294;47.912;13.526;2023-01-15T12:49:45;95194.50;;;7.83;73.51
66479;BME280;53294;47.912;13.526;2023-01-15T12:52:21;95196.50;;;7.91;73.59
66479;BME280;53294;47.912;13.526;2023-01-15T12:55:12;95205.06;;;7.65;74.40
66479;BME280;53294;47.912;13.526;2023-01-15T12:57:43;95226.03;;;7.58;74.90
66479;BME280;53294;47.912;13.526;2023-01-15T13:00:14;95247.81;;;7.65;74.65
66479;BME280;53294;47.912;13.526;2023-01-15T13:02:49;95267.22;;;7.57;75.24
66479;BME280;53294;47.912;13.526;2023-01-15T13:05:27;95278.13;;;7.47;75.24
66479;BME280;53294;47.912;13.526;2023-01-15T13:08:00;95293.44;;;7.27;76.21
66479;BME280;53294;47.912;13.526;2023-01-15T13:10:30;95313.53;;;7.25;75.93
66479;BME280;53294;47.912;13.526;2023-01-15T13:13:20;95328.13;;;6.99;76.40
66479;BME280;53294;47.912;13.526;2023-01-15T13:16:45;95357.94;;;6.88;76.61
66479;BME280;53294;47.912;13.526;2023-01-15T13:19:19;95363.13;;;6.79;76.57
66479;BME280;53294;47.912;13.526;2023-01-15T13:21:50;95377.81;;;6.62;77.15
66479;BME280;53294;47.912;13.526;2023-01-15T13:30:02;95410.81;;;6.47;76.03
66479;BME280;53294;47.912;13.526;2023-01-15T13:32:40;95421.78;;;6.46;75.37
66479;BME280;53294;47.912;13.526;2023-01-15T13:35:16;95441.56;;;6.21;75.63
66479;BME280;53294;47.912;13.526;2023-01-15T13:37:50;95438.44;;;6.14;75.15
66479;BME280;53294;47.912;13.526;2023-01-15T13:40:32;95450.09;;;5.99;75.22
66479;BME280;53294;47.912;13.526;2023-01-15T13:43:01;95457.03;;;5.94;74.99
66479;BME280;53294;47.912;13.526;2023-01-15T13:48:11;95465.41;;;5.53;75.57
66479;BME280;53294;47.912;13.526;2023-01-15T13:50:49;95460.66;;;5.50;75.89
66479;BME280;53294;47.912;13.526;2023-01-15T13:53:25;95466.75;;;5.80;74.41
66479;BME280;53294;47.912;13.526;2023-01-15T13:55:54;95474.97;;;5.84;74.66
66479;BME280;53294;47.912;13.526;2023-01-15T14:01:05;95477.09;;;5.57;75.16
66479;BME280;53294;47.912;13.526;2023-01-15T14:03:36;95483.78;;;5.55;74.91
66479;BME280;53294;47.912;13.526;2023-01-15T14:06:06;95490.09;;;5.64;74.81
66479;BME280;53294;47.912;13.526;2023-01-15T14:08:44;95503.94;;;5.96;73.94
66479;BME280;53294;47.912;13.526;2023-01-15T14:11:39;95511.19;;;5.90;73.81
66479;BME280;53294;47.912;13.526;2023-01-15T14:28:45;95542.28;;;4.86;78.97
66479;BME280;53294;47.912;13.526;2023-01-15T14:36:38;95558.75;;;4.28;81.03
66479;BME280;53294;47.912;13.526;2023-01-15T14:39:21;95553.97;;;4.25;82.11
66479;BME280;53294;47.912;13.526;2023-01-15T14:41:55;95551.00;;;4.31;81.61
66479;BME280;53294;47.912;13.526;2023-01-15T14:44:42;95564.00;;;4.43;80.93
66479;BME280;53294;47.912;13.526;2023-01-15T14:47:21;95563.44;;;4.62;79.31
66479;BME280;53294;47.912;13.526;2023-01-15T14:55:52;95572.47;;;4.61;78.75
66479;BME280;53294;47.912;13.526;2023-01-15T14:58:44;95581.56;;;4.49;80.05
66479;BME280;53294;47.912;13.526;2023-01-15T15:03:55;95583.47;;;4.23;82.66
66479;BME280;53294;47.912;13.526;2023-01-15T15:06:24;95592.53;;;4.12;83.21
66479;BME280;53294;47.912;13.526;2023-01-15T15:08:58;95603.44;;;4.00;82.86
66479;BME280;53294;47.912;13.526;2023-01-15T15:11:34;95596.81;;;4.03;83.19
66479;BME280;53294;47.912;13.526;2023-01-15T15:14:20;95608.75;;;4.05;83.20
66479;BME280;53294;47.912;13.526;2023-01-15T15:16:50;95614.59;;;4.12;82.21
66479;BME280;53294;47.912;13.526;2023-01-15T15:19:34;95618.28;;;4.37;80.78